SHMÚ vydal meteorologické výstrahy na Low temperaturesSnowdrifts Display warnings

Smog PM10 - Upozornenie - Jelšava and surroundings » Display

METAR

Aeronautical MET Report METAR

METAR description (Slovak)

18.01.2019 - 15:30 UTC

METAR LZIB 181530Z 33012KT 9999 FEW037 SCT051 03/M05 Q1018 NOSIG=
METAR LZKZ 181530Z 04007KT 9999 FEW028 BKN039 01/M00 Q1014 NOSIG=
METAR LZPP 181530Z 34010KT 9999 FEW031 SCT055 01/M05 Q1018=
METAR LZSL 181530Z VRB01KT 9999 FEW026 01/M07 Q1015=
METAR LZTT 181530Z 27012KT 9999 FEW020 SCT043 M02/M06 Q1012 NOSIG=
METAR LZZI 181530Z 33003KT 280V020 6000 SCT018 BKN037 M01/M01 Q1017=

18.01.2019 - 15:00 UTC

METAR LZIB 181500Z 33015KT 9999 SCT037 SCT052 04/M05 Q1018 NOSIG=
METAR LZKZ 181500Z 03007KT 1600 SN FEW005 BKN014 01/M00 Q1014 NOSIG=
METAR LZPP 181500Z 34008KT 9999 FEW031 SCT055 01/M03 Q1017=
METAR LZSL 181500Z 29004KT 9999 FEW050 02/M06 Q1015=
METAR LZTT 181500Z 26013KT 9999 FEW026 SCT043 M02/M06 Q1012 NOSIG=
METAR LZZI 181500Z 25005KT 9999 SCT035 BKN048 M01/M02 Q1016=

18.01.2019 - 15:00 UTC

METAR LZMC 181500Z 34012KT 9999 SCT032 02/M05 Q1018=
METAR LZPW 181500Z 08006KT 2000 -SN OVC002 M00/M01
Q1014=

 

 

skok na menu ↑


skok na začiatok stránky ↑